sensor_id;sensor_type;location;lat;lon;timestamp;temperature;humidity
53272;DHT22;39160;48.580;7.756;2022-12-13T00:00:02;-2.10;99.90
53272;DHT22;39160;48.580;7.756;2022-12-13T00:04:53;-1.90;99.90
53272;DHT22;39160;48.580;7.756;2022-12-13T00:09:43;-1.70;99.90
53272;DHT22;39160;48.580;7.756;2022-12-13T00:14:34;-1.80;99.90
53272;DHT22;39160;48.580;7.756;2022-12-13T00:19:25;-1.90;99.90
53272;DHT22;39160;48.580;7.756;2022-12-13T00:24:15;-1.90;99.90
53272;DHT22;39160;48.580;7.756;2022-12-13T00:29:07;-1.90;99.90
53272;DHT22;39160;48.580;7.756;2022-12-13T00:33:58;-1.80;99.90
53272;DHT22;39160;48.580;7.756;2022-12-13T00:38:49;-1.90;99.90
53272;DHT22;39160;48.580;7.756;2022-12-13T00:43:51;-2.00;99.90
53272;DHT22;39160;48.580;7.756;2022-12-13T00:48:43;-2.10;99.90
53272;DHT22;39160;48.580;7.756;2022-12-13T00:53:35;-2.30;99.90
53272;DHT22;39160;48.580;7.756;2022-12-13T00:58:25;-2.30;99.90
53272;DHT22;39160;48.580;7.756;2022-12-13T01:03:16;-2.40;99.90
53272;DHT22;39160;48.580;7.756;2022-12-13T01:08:10;-2.50;99.90
53272;DHT22;39160;48.580;7.756;2022-12-13T01:13:00;-2.40;99.90
53272;DHT22;39160;48.580;7.756;2022-12-13T01:17:51;-2.30;99.90
53272;DHT22;39160;48.580;7.756;2022-12-13T01:22:41;-2.20;99.90
53272;DHT22;39160;48.580;7.756;2022-12-13T01:27:32;-2.50;99.90
53272;DHT22;39160;48.580;7.756;2022-12-13T01:32:23;-2.40;99.90
53272;DHT22;39160;48.580;7.756;2022-12-13T01:37:13;-2.40;99.90
53272;DHT22;39160;48.580;7.756;2022-12-13T01:42:04;-2.40;99.90
53272;DHT22;39160;48.580;7.756;2022-12-13T01:46:54;-2.50;99.90
53272;DHT22;39160;48.580;7.756;2022-12-13T01:56:45;-2.40;99.90
53272;DHT22;39160;48.580;7.756;2022-12-13T02:01:37;-2.60;99.90
53272;DHT22;39160;48.580;7.756;2022-12-13T02:06:38;-2.60;99.90
53272;DHT22;39160;48.580;7.756;2022-12-13T02:11:32;-2.60;99.90
53272;DHT22;39160;48.580;7.756;2022-12-13T02:16:45;-2.60;99.90
53272;DHT22;39160;48.580;7.756;2022-12-13T02:22:02;-2.60;99.90
53272;DHT22;39160;48.580;7.756;2022-12-13T02:32:42;-2.60;99.90
53272;DHT22;39160;48.580;7.756;2022-12-13T02:37:49;-2.70;99.90
53272;DHT22;39160;48.580;7.756;2022-12-13T02:43:12;-2.70;99.90
53272;DHT22;39160;48.580;7.756;2022-12-13T02:48:02;-2.60;99.90
53272;DHT22;39160;48.580;7.756;2022-12-13T02:52:54;-2.60;99.90
53272;DHT22;39160;48.580;7.756;2022-12-13T02:57:46;-2.60;99.90
53272;DHT22;39160;48.580;7.756;2022-12-13T03:12:57;-2.60;99.90
53272;DHT22;39160;48.580;7.756;2022-12-13T03:18:16;-2.60;99.90
53272;DHT22;39160;48.580;7.756;2022-12-13T03:23:09;-2.60;99.90
53272;DHT22;39160;48.580;7.756;2022-12-13T03:28:01;-2.60;99.90
53272;DHT22;39160;48.580;7.756;2022-12-13T03:32:51;-2.60;99.90
53272;DHT22;39160;48.580;7.756;2022-12-13T03:37:42;-2.50;99.90
53272;DHT22;39160;48.580;7.756;2022-12-13T03:42:32;-2.60;99.90
53272;DHT22;39160;48.580;7.756;2022-12-13T03:47:23;-2.60;99.90
53272;DHT22;39160;48.580;7.756;2022-12-13T03:52:14;-2.60;99.90
53272;DHT22;39160;48.580;7.756;2022-12-13T03:57:04;-2.60;99.90
53272;DHT22;39160;48.580;7.756;2022-12-13T04:01:55;-2.60;99.90
53272;DHT22;39160;48.580;7.756;2022-12-13T04:06:45;-2.60;99.90
53272;DHT22;39160;48.580;7.756;2022-12-13T04:11:36;-2.60;99.90
53272;DHT22;39160;48.580;7.756;2022-12-13T04:16:45;-2.80;99.90
53272;DHT22;39160;48.580;7.756;2022-12-13T04:21:36;-2.80;99.90
53272;DHT22;39160;48.580;7.756;2022-12-13T04:26:27;-2.80;99.90
53272;DHT22;39160;48.580;7.756;2022-12-13T04:31:18;-2.80;99.90
53272;DHT22;39160;48.580;7.756;2022-12-13T04:36:09;-2.90;99.90
53272;DHT22;39160;48.580;7.756;2022-12-13T04:41:07;-3.00;99.90
53272;DHT22;39160;48.580;7.756;2022-12-13T04:45:58;-3.00;99.90
53272;DHT22;39160;48.580;7.756;2022-12-13T04:50:48;-3.00;99.90
53272;DHT22;39160;48.580;7.756;2022-12-13T04:55:39;-3.00;99.90
53272;DHT22;39160;48.580;7.756;2022-12-13T05:00:29;-3.10;99.90
53272;DHT22;39160;48.580;7.756;2022-12-13T05:05:20;-3.10;99.90
53272;DHT22;39160;48.580;7.756;2022-12-13T05:10:12;-3.10;99.90
53272;DHT22;39160;48.580;7.756;2022-12-13T05:15:03;-3.20;99.90
53272;DHT22;39160;48.580;7.756;2022-12-13T05:19:54;-3.20;99.90
53272;DHT22;39160;48.580;7.756;2022-12-13T05:24:44;-3.10;99.90
53272;DHT22;39160;48.580;7.756;2022-12-13T05:29:35;-3.10;99.90
53272;DHT22;39160;48.580;7.756;2022-12-13T05:34:26;-3.20;99.90
53272;DHT22;39160;48.580;7.756;2022-12-13T05:39:16;-3.10;99.90
53272;DHT22;39160;48.580;7.756;2022-12-13T05:44:07;-3.10;99.90
53272;DHT22;39160;48.580;7.756;2022-12-13T05:48:59;-3.20;99.90
53272;DHT22;39160;48.580;7.756;2022-12-13T05:53:50;-3.20;99.90
53272;DHT22;39160;48.580;7.756;2022-12-13T05:58:40;-3.20;99.90
53272;DHT22;39160;48.580;7.756;2022-12-13T06:03:32;-3.20;99.90
53272;DHT22;39160;48.580;7.756;2022-12-13T06:08:24;-3.20;99.90
53272;DHT22;39160;48.580;7.756;2022-12-13T06:13:14;-3.30;99.90
53272;DHT22;39160;48.580;7.756;2022-12-13T06:18:05;-3.30;99.90
53272;DHT22;39160;48.580;7.756;2022-12-13T06:22:55;-3.30;99.90
53272;DHT22;39160;48.580;7.756;2022-12-13T06:27:48;-3.30;99.90
53272;DHT22;39160;48.580;7.756;2022-12-13T06:32:38;-3.20;99.90
53272;DHT22;39160;48.580;7.756;2022-12-13T06:37:29;-3.20;99.90
53272;DHT22;39160;48.580;7.756;2022-12-13T06:42:20;-3.10;99.90
53272;DHT22;39160;48.580;7.756;2022-12-13T06:47:10;-3.10;99.90
53272;DHT22;39160;48.580;7.756;2022-12-13T06:52:01;-3.10;99.90
53272;DHT22;39160;48.580;7.756;2022-12-13T06:56:52;-3.10;99.90
53272;DHT22;39160;48.580;7.756;2022-12-13T07:01:42;-3.10;99.90
53272;DHT22;39160;48.580;7.756;2022-12-13T07:06:33;-3.10;99.90
53272;DHT22;39160;48.580;7.756;2022-12-13T07:11:27;-3.10;99.90
53272;DHT22;39160;48.580;7.756;2022-12-13T07:16:19;-3.10;99.90
53272;DHT22;39160;48.580;7.756;2022-12-13T07:21:12;-3.10;99.90
53272;DHT22;39160;48.580;7.756;2022-12-13T07:26:04;-3.10;99.90
53272;DHT22;39160;48.580;7.756;2022-12-13T07:30:55;-3.20;99.90
53272;DHT22;39160;48.580;7.756;2022-12-13T07:35:49;-3.20;99.90
53272;DHT22;39160;48.580;7.756;2022-12-13T07:40:40;-3.10;99.90
53272;DHT22;39160;48.580;7.756;2022-12-13T07:45:31;-3.10;99.90
53272;DHT22;39160;48.580;7.756;2022-12-13T07:50:22;-3.10;99.90
53272;DHT22;39160;48.580;7.756;2022-12-13T07:55:13;-3.10;99.90
53272;DHT22;39160;48.580;7.756;2022-12-13T08:00:04;-3.10;99.90
53272;DHT22;39160;48.580;7.756;2022-12-13T08:04:55;-3.20;99.90
53272;DHT22;39160;48.580;7.756;2022-12-13T08:09:46;-3.20;99.90
53272;DHT22;39160;48.580;7.756;2022-12-13T08:14:36;-3.10;99.90
53272;DHT22;39160;48.580;7.756;2022-12-13T08:19:27;-3.10;99.90
53272;DHT22;39160;48.580;7.756;2022-12-13T08:24:18;-3.00;99.90
53272;DHT22;39160;48.580;7.756;2022-12-13T08:29:09;-2.80;99.90
53272;DHT22;39160;48.580;7.756;2022-12-13T08:34:01;-2.80;99.90
53272;DHT22;39160;48.580;7.756;2022-12-13T08:38:54;-2.70;99.90
53272;DHT22;39160;48.580;7.756;2022-12-13T08:43:45;-2.70;99.90
53272;DHT22;39160;48.580;7.756;2022-12-13T08:48:36;-2.60;99.90
53272;DHT22;39160;48.580;7.756;2022-12-13T08:53:27;-2.70;99.90
53272;DHT22;39160;48.580;7.756;2022-12-13T08:58:17;-2.60;99.90
53272;DHT22;39160;48.580;7.756;2022-12-13T09:03:08;-2.70;99.90
53272;DHT22;39160;48.580;7.756;2022-12-13T09:07:59;-2.70;99.90
53272;DHT22;39160;48.580;7.756;2022-12-13T09:12:53;-2.70;99.90
53272;DHT22;39160;48.580;7.756;2022-12-13T09:17:44;-2.70;99.90
53272;DHT22;39160;48.580;7.756;2022-12-13T09:22:36;-2.60;99.90
53272;DHT22;39160;48.580;7.756;2022-12-13T09:27:27;-2.60;99.90
53272;DHT22;39160;48.580;7.756;2022-12-13T09:32:18;-2.60;99.90
53272;DHT22;39160;48.580;7.756;2022-12-13T09:37:09;-2.40;99.90
53272;DHT22;39160;48.580;7.756;2022-12-13T09:42:02;-2.30;99.90
53272;DHT22;39160;48.580;7.756;2022-12-13T09:46:54;-2.30;99.90
53272;DHT22;39160;48.580;7.756;2022-12-13T09:51:53;-2.30;99.90
53272;DHT22;39160;48.580;7.756;2022-12-13T09:56:45;-2.10;99.90
53272;DHT22;39160;48.580;7.756;2022-12-13T10:01:39;-2.00;99.90
53272;DHT22;39160;48.580;7.756;2022-12-13T10:06:31;-1.90;99.90
53272;DHT22;39160;48.580;7.756;2022-12-13T10:11:25;-1.90;99.90
53272;DHT22;39160;48.580;7.756;2022-12-13T10:21:33;-1.70;99.90
53272;DHT22;39160;48.580;7.756;2022-12-13T10:26:25;-1.40;99.90
53272;DHT22;39160;48.580;7.756;2022-12-13T10:31:18;-1.50;99.90
53272;DHT22;39160;48.580;7.756;2022-12-13T10:36:14;-1.50;99.90
53272;DHT22;39160;48.580;7.756;2022-12-13T10:41:36;-1.30;99.90
53272;DHT22;39160;48.580;7.756;2022-12-13T10:46:27;-1.50;99.90
53272;DHT22;39160;48.580;7.756;2022-12-13T10:51:21;-1.50;99.90
53272;DHT22;39160;48.580;7.756;2022-12-13T10:56:19;-1.50;99.90
53272;DHT22;39160;48.580;7.756;2022-12-13T11:06:15;-1.10;99.90
53272;DHT22;39160;48.580;7.756;2022-12-13T11:11:09;-1.00;99.90
53272;DHT22;39160;48.580;7.756;2022-12-13T11:16:03;-1.00;99.90
53272;DHT22;39160;48.580;7.756;2022-12-13T11:21:02;-1.00;99.90
53272;DHT22;39160;48.580;7.756;2022-12-13T11:25:56;-0.90;99.90
53272;DHT22;39160;48.580;7.756;2022-12-13T11:31:10;-0.80;99.90
53272;DHT22;39160;48.580;7.756;2022-12-13T11:36:11;-0.70;99.90
53272;DHT22;39160;48.580;7.756;2022-12-13T11:41:11;-0.60;99.90
53272;DHT22;39160;48.580;7.756;2022-12-13T11:46:12;-0.70;99.90
53272;DHT22;39160;48.580;7.756;2022-12-13T11:51:07;-0.70;99.90
53272;DHT22;39160;48.580;7.756;2022-12-13T12:01:16;-0.50;99.90
53272;DHT22;39160;48.580;7.756;2022-12-13T12:06:31;-0.40;99.90
53272;DHT22;39160;48.580;7.756;2022-12-13T12:11:34;-0.40;99.90
53272;DHT22;39160;48.580;7.756;2022-12-13T12:21:36;-0.30;99.90
53272;DHT22;39160;48.580;7.756;2022-12-13T12:32:11;0.00;99.90
53272;DHT22;39160;48.580;7.756;2022-12-13T12:37:27;0.30;99.90
53272;DHT22;39160;48.580;7.756;2022-12-13T12:58:07;0.30;99.90
53272;DHT22;39160;48.580;7.756;2022-12-13T13:03:18;0.50;99.90
53272;DHT22;39160;48.580;7.756;2022-12-13T13:09:03;0.60;99.90
53272;DHT22;39160;48.580;7.756;2022-12-13T13:18:51;0.50;99.90
53272;DHT22;39160;48.580;7.756;2022-12-13T13:23:41;0.40;99.90
53272;DHT22;39160;48.580;7.756;2022-12-13T13:28:32;0.30;99.90
53272;DHT22;39160;48.580;7.756;2022-12-13T13:38:48;0.30;99.90
53272;DHT22;39160;48.580;7.756;2022-12-13T13:43:39;0.10;99.90
53272;DHT22;39160;48.580;7.756;2022-12-13T13:48:52;0.10;99.90
53272;DHT22;39160;48.580;7.756;2022-12-13T14:30:40;0.00;99.90
53272;DHT22;39160;48.580;7.756;2022-12-13T14:35:32;0.00;99.90
53272;DHT22;39160;48.580;7.756;2022-12-13T14:45:33;0.10;99.90
53272;DHT22;39160;48.580;7.756;2022-12-13T14:50:27;0.00;99.90
53272;DHT22;39160;48.580;7.756;2022-12-13T14:55:41;-0.10;99.90
53272;DHT22;39160;48.580;7.756;2022-12-13T15:00:39;-0.10;99.90
53272;DHT22;39160;48.580;7.756;2022-12-13T15:05:39;-0.10;99.90
53272;DHT22;39160;48.580;7.756;2022-12-13T15:10:37;-0.20;99.90
53272;DHT22;39160;48.580;7.756;2022-12-13T15:15:35;-0.20;99.90
53272;DHT22;39160;48.580;7.756;2022-12-13T15:20:29;-0.30;99.90
53272;DHT22;39160;48.580;7.756;2022-12-13T15:25:20;-0.30;99.90
53272;DHT22;39160;48.580;7.756;2022-12-13T15:30:14;-0.50;99.90
53272;DHT22;39160;48.580;7.756;2022-12-13T15:35:14;-0.50;99.90
53272;DHT22;39160;48.580;7.756;2022-12-13T15:40:07;-0.60;99.90
53272;DHT22;39160;48.580;7.756;2022-12-13T15:45:01;-0.50;99.90
53272;DHT22;39160;48.580;7.756;2022-12-13T15:50:01;-0.50;99.90
53272;DHT22;39160;48.580;7.756;2022-12-13T15:55:39;-0.50;99.90
53272;DHT22;39160;48.580;7.756;2022-12-13T16:00:19;-0.50;99.90
53272;DHT22;39160;48.580;7.756;2022-12-13T16:05:22;-0.50;99.90
53272;DHT22;39160;48.580;7.756;2022-12-13T16:10:16;-0.50;99.90
53272;DHT22;39160;48.580;7.756;2022-12-13T16:15:23;-0.40;99.90
53272;DHT22;39160;48.580;7.756;2022-12-13T16:20:15;-0.50;99.90
53272;DHT22;39160;48.580;7.756;2022-12-13T16:25:05;-0.50;99.90
53272;DHT22;39160;48.580;7.756;2022-12-13T16:29:56;-0.50;99.90
53272;DHT22;39160;48.580;7.756;2022-12-13T16:34:47;-0.50;99.90
53272;DHT22;39160;48.580;7.756;2022-12-13T16:39:37;-0.50;99.90
53272;DHT22;39160;48.580;7.756;2022-12-13T16:44:37;-0.50;99.90
53272;DHT22;39160;48.580;7.756;2022-12-13T16:49:29;-0.50;99.90
53272;DHT22;39160;48.580;7.756;2022-12-13T16:54:21;-0.50;99.90
53272;DHT22;39160;48.580;7.756;2022-12-13T16:59:14;-0.60;99.90
53272;DHT22;39160;48.580;7.756;2022-12-13T17:04:07;-0.60;99.90
53272;DHT22;39160;48.580;7.756;2022-12-13T17:08:58;-0.60;99.90
53272;DHT22;39160;48.580;7.756;2022-12-13T17:13:49;-0.60;99.90
53272;DHT22;39160;48.580;7.756;2022-12-13T17:18:40;-0.60;99.90
53272;DHT22;39160;48.580;7.756;2022-12-13T17:23:31;-0.50;99.90
53272;DHT22;39160;48.580;7.756;2022-12-13T17:28:21;-0.50;99.90
53272;DHT22;39160;48.580;7.756;2022-12-13T17:33:12;-0.60;99.90
53272;DHT22;39160;48.580;7.756;2022-12-13T17:38:03;-0.50;99.90
53272;DHT22;39160;48.580;7.756;2022-12-13T17:42:54;-0.60;99.90
53272;DHT22;39160;48.580;7.756;2022-12-13T17:47:45;-0.60;99.90
53272;DHT22;39160;48.580;7.756;2022-12-13T17:52:37;-0.50;99.90
53272;DHT22;39160;48.580;7.756;2022-12-13T17:57:28;-0.60;99.90
53272;DHT22;39160;48.580;7.756;2022-12-13T18:02:19;-0.50;99.90
53272;DHT22;39160;48.580;7.756;2022-12-13T18:07:12;-0.40;99.90
53272;DHT22;39160;48.580;7.756;2022-12-13T18:12:02;-0.40;99.90
53272;DHT22;39160;48.580;7.756;2022-12-13T18:16:53;-0.40;99.90
53272;DHT22;39160;48.580;7.756;2022-12-13T18:21:44;-0.30;99.90
53272;DHT22;39160;48.580;7.756;2022-12-13T18:26:35;-0.20;99.90
53272;DHT22;39160;48.580;7.756;2022-12-13T18:31:25;-0.30;99.90
53272;DHT22;39160;48.580;7.756;2022-12-13T18:36:18;-0.40;99.90
53272;DHT22;39160;48.580;7.756;2022-12-13T18:41:11;-0.50;99.90
53272;DHT22;39160;48.580;7.756;2022-12-13T18:46:05;-0.40;99.90
53272;DHT22;39160;48.580;7.756;2022-12-13T18:51:04;-0.40;99.90
53272;DHT22;39160;48.580;7.756;2022-12-13T18:56:06;-0.40;99.90
53272;DHT22;39160;48.580;7.756;2022-12-13T19:00:57;-0.20;99.90
53272;DHT22;39160;48.580;7.756;2022-12-13T19:05:48;-0.20;99.90
53272;DHT22;39160;48.580;7.756;2022-12-13T19:10:39;-0.20;99.90
53272;DHT22;39160;48.580;7.756;2022-12-13T19:15:30;-0.30;99.90
53272;DHT22;39160;48.580;7.756;2022-12-13T19:20:20;-0.20;99.90
53272;DHT22;39160;48.580;7.756;2022-12-13T19:25:11;-0.20;99.90
53272;DHT22;39160;48.580;7.756;2022-12-13T19:30:03;-0.20;99.90
53272;DHT22;39160;48.580;7.756;2022-12-13T19:34:54;-0.20;99.90
53272;DHT22;39160;48.580;7.756;2022-12-13T19:39:45;-0.20;99.90
53272;DHT22;39160;48.580;7.756;2022-12-13T19:44:36;-0.20;99.90
53272;DHT22;39160;48.580;7.756;2022-12-13T19:49:27;-0.20;99.90
53272;DHT22;39160;48.580;7.756;2022-12-13T19:54:18;-0.20;99.90
53272;DHT22;39160;48.580;7.756;2022-12-13T19:59:09;-0.20;99.90
53272;DHT22;39160;48.580;7.756;2022-12-13T20:04:01;-0.40;99.90
53272;DHT22;39160;48.580;7.756;2022-12-13T20:08:55;-0.40;99.90
53272;DHT22;39160;48.580;7.756;2022-12-13T20:13:52;-0.30;99.90
53272;DHT22;39160;48.580;7.756;2022-12-13T20:18:44;-0.30;99.90
53272;DHT22;39160;48.580;7.756;2022-12-13T20:23:36;-0.30;99.90
53272;DHT22;39160;48.580;7.756;2022-12-13T20:28:30;-0.30;99.90
53272;DHT22;39160;48.580;7.756;2022-12-13T20:33:21;-0.40;99.90
53272;DHT22;39160;48.580;7.756;2022-12-13T20:38:12;-0.30;99.90
53272;DHT22;39160;48.580;7.756;2022-12-13T20:43:03;-0.30;99.90
53272;DHT22;39160;48.580;7.756;2022-12-13T20:47:53;-0.30;99.90
53272;DHT22;39160;48.580;7.756;2022-12-13T20:52:44;-0.30;99.90
53272;DHT22;39160;48.580;7.756;2022-12-13T20:57:35;-0.30;99.90
53272;DHT22;39160;48.580;7.756;2022-12-13T21:02:25;-0.30;99.90
53272;DHT22;39160;48.580;7.756;2022-12-13T21:07:16;-0.30;99.90
53272;DHT22;39160;48.580;7.756;2022-12-13T21:12:27;-0.10;99.90
53272;DHT22;39160;48.580;7.756;2022-12-13T21:17:18;0.00;99.90
53272;DHT22;39160;48.580;7.756;2022-12-13T21:22:11;0.10;99.90
53272;DHT22;39160;48.580;7.756;2022-12-13T21:27:02;0.20;99.90
53272;DHT22;39160;48.580;7.756;2022-12-13T21:31:53;0.10;99.90
53272;DHT22;39160;48.580;7.756;2022-12-13T21:36:47;-0.10;99.90
53272;DHT22;39160;48.580;7.756;2022-12-13T21:41:38;0.00;99.90
53272;DHT22;39160;48.580;7.756;2022-12-13T21:46:29;0.10;99.90
53272;DHT22;39160;48.580;7.756;2022-12-13T21:51:22;0.10;99.90
53272;DHT22;39160;48.580;7.756;2022-12-13T21:56:16;0.20;99.90
53272;DHT22;39160;48.580;7.756;2022-12-13T22:01:27;0.20;99.90
53272;DHT22;39160;48.580;7.756;2022-12-13T22:06:38;0.20;99.90
53272;DHT22;39160;48.580;7.756;2022-12-13T22:11:29;0.30;99.90
53272;DHT22;39160;48.580;7.756;2022-12-13T22:16:20;0.30;99.90
53272;DHT22;39160;48.580;7.756;2022-12-13T22:21:11;0.40;99.90
53272;DHT22;39160;48.580;7.756;2022-12-13T22:26:05;0.50;99.90
53272;DHT22;39160;48.580;7.756;2022-12-13T22:30:55;0.20;99.90
53272;DHT22;39160;48.580;7.756;2022-12-13T22:35:46;0.10;99.90
53272;DHT22;39160;48.580;7.756;2022-12-13T22:40:37;0.10;99.90
53272;DHT22;39160;48.580;7.756;2022-12-13T22:45:27;0.00;99.90
53272;DHT22;39160;48.580;7.756;2022-12-13T22:50:18;0.10;99.90
53272;DHT22;39160;48.580;7.756;2022-12-13T22:55:10;0.20;99.90
53272;DHT22;39160;48.580;7.756;2022-12-13T23:00:00;0.00;99.90
53272;DHT22;39160;48.580;7.756;2022-12-13T23:04:51;0.00;99.90
53272;DHT22;39160;48.580;7.756;2022-12-13T23:09:42;0.00;99.90
53272;DHT22;39160;48.580;7.756;2022-12-13T23:14:33;0.10;99.90
53272;DHT22;39160;48.580;7.756;2022-12-13T23:19:24;0.10;99.90
53272;DHT22;39160;48.580;7.756;2022-12-13T23:24:15;0.00;99.90
53272;DHT22;39160;48.580;7.756;2022-12-13T23:29:07;0.00;99.90
53272;DHT22;39160;48.580;7.756;2022-12-13T23:33:57;-0.10;99.90
53272;DHT22;39160;48.580;7.756;2022-12-13T23:38:49;0.00;99.90
53272;DHT22;39160;48.580;7.756;2022-12-13T23:43:40;0.10;99.90
53272;DHT22;39160;48.580;7.756;2022-12-13T23:48:31;0.00;99.90
53272;DHT22;39160;48.580;7.756;2022-12-13T23:53:25;0.10;99.90
53272;DHT22;39160;48.580;7.756;2022-12-13T23:58:17;0.10;99.90
